createdAt,value
2022-12-29T00:00:08.537Z,99260.73
2022-12-29T00:02:41.933Z,99257.14
2022-12-29T00:05:09.285Z,99256.05
2022-12-29T00:07:36.252Z,99253.48
2022-12-29T00:10:03.444Z,99258.03
2022-12-29T00:12:50.401Z,99256.44
2022-12-29T00:15:36.157Z,99259.98
2022-12-29T00:18:03.376Z,99265.70
2022-12-29T00:20:49.297Z,99264.67
2022-12-29T00:23:35.121Z,99266.64
2022-12-29T00:26:23.477Z,99269.65
2022-12-29T00:29:10.375Z,99270.05
2022-12-29T00:31:56.153Z,99266.54
2022-12-29T00:34:41.879Z,99264.86
2022-12-29T00:37:08.795Z,99254.41
2022-12-29T00:40:05.227Z,99256.33
2022-12-29T00:42:50.904Z,99255.63
2022-12-29T00:45:18.157Z,99259.41
2022-12-29T00:47:45.324Z,99262.65
2022-12-29T00:50:12.226Z,99256.30
2022-12-29T00:52:39.089Z,99250.40
2022-12-29T00:55:06.455Z,99245.86
2022-12-29T00:57:33.972Z,99246.26
2022-12-29T01:00:01.352Z,99253.02
2022-12-29T01:02:29.587Z,99247.48
2022-12-29T01:04:56.697Z,99249.47
2022-12-29T01:07:23.730Z,99246.67
2022-12-29T01:10:09.533Z,99248.17
2022-12-29T01:12:42.831Z,99245.56
2022-12-29T01:15:11.963Z,99244.20
2022-12-29T01:17:38.853Z,99248.69
2022-12-29T01:20:06.133Z,99248.02
2022-12-29T01:22:34.026Z,99249.81
2022-12-29T01:25:00.943Z,99244.73
2022-12-29T01:27:27.872Z,99241.02
2022-12-29T01:29:54.730Z,99237.95
2022-12-29T01:32:21.561Z,99237.80
2022-12-29T01:34:48.397Z,99232.73
2022-12-29T01:37:15.364Z,99229.63
2022-12-29T01:39:42.213Z,99232.29
2022-12-29T01:42:17.449Z,99236.36
2022-12-29T01:44:52.494Z,99230.73
2022-12-29T01:47:33.561Z,99222.70
2022-12-29T01:50:22.924Z,99218.55
2022-12-29T01:53:19.000Z,99210.92
2022-12-29T01:55:49.675Z,99211.75
2022-12-29T01:58:16.983Z,99206.45
2022-12-29T02:00:44.995Z,99209.11
2022-12-29T02:03:11.875Z,99204.92
2022-12-29T02:05:47.436Z,99197.52
2022-12-29T02:08:14.420Z,99190.57
2022-12-29T02:10:41.316Z,99185.81
2022-12-29T02:13:08.151Z,99177.02
2022-12-29T02:15:53.743Z,99172.90
2022-12-29T02:18:36.943Z,99171.45
2022-12-29T02:21:34.320Z,99170.39
2022-12-29T02:24:25.829Z,99167.19
2022-12-29T02:27:13.979Z,99160.92
2022-12-29T02:29:53.294Z,99159.95
2022-12-29T02:32:29.640Z,99158.48
2022-12-29T02:35:07.139Z,99154.70
2022-12-29T02:37:40.478Z,99147.11
2022-12-29T02:40:08.793Z,99148.20
2022-12-29T02:42:48.325Z,99144.16
2022-12-29T02:45:44.557Z,99147.75
2022-12-29T02:48:17.242Z,99147.56
2022-12-29T02:50:52.048Z,99148.21
2022-12-29T02:53:38.957Z,99151.11
2022-12-29T02:56:06.164Z,99148.85
2022-12-29T02:58:33.132Z,99153.30
2022-12-29T03:01:34.515Z,99158.02
2022-12-29T03:04:24.938Z,99160.14
2022-12-29T03:07:16.558Z,99159.35
2022-12-29T03:09:52.779Z,99160.19
2022-12-29T03:13:22.519Z,99163.30
2022-12-29T03:16:20.282Z,99163.89
2022-12-29T03:18:57.761Z,99163.73
2022-12-29T03:21:44.770Z,99158.09
2022-12-29T03:24:12.117Z,99153.04
2022-12-29T03:26:39.099Z,99149.23
2022-12-29T03:29:05.994Z,99145.94
2022-12-29T03:31:32.941Z,99147.31
2022-12-29T03:34:00.067Z,99151.17
2022-12-29T03:36:49.394Z,99150.12
2022-12-29T03:39:16.280Z,99155.14
2022-12-29T03:41:45.569Z,99163.68
2022-12-29T03:44:13.743Z,99164.30
2022-12-29T03:46:41.406Z,99162.15
2022-12-29T03:49:09.085Z,99164.53
2022-12-29T03:51:35.955Z,99166.82
2022-12-29T03:54:03.553Z,99169.11
2022-12-29T03:56:30.571Z,99168.02
2022-12-29T03:58:58.671Z,99165.02
2022-12-29T04:01:31.989Z,99156.43
2022-12-29T04:03:58.970Z,99155.28
2022-12-29T04:06:26.212Z,99150.80
2022-12-29T04:09:01.596Z,99144.49
2022-12-29T04:11:33.093Z,99146.84
2022-12-29T04:14:01.186Z,99143.06
2022-12-29T04:16:29.611Z,99141.23
2022-12-29T04:18:56.691Z,99140.92
2022-12-29T04:21:23.617Z,99144.02
2022-12-29T04:23:50.549Z,99136.25
2022-12-29T04:26:17.727Z,99135.63
2022-12-29T04:28:53.638Z,99131.65
2022-12-29T04:31:40.921Z,99133.64
2022-12-29T04:34:08.104Z,99135.50
2022-12-29T04:36:35.121Z,99132.88
2022-12-29T04:39:02.099Z,99125.28
2022-12-29T04:41:29.310Z,99126.05
2022-12-29T04:43:56.249Z,99128.13
2022-12-29T04:46:43.448Z,99126.17
2022-12-29T04:51:27.726Z,99120.57
2022-12-29T04:53:54.628Z,99118.91
2022-12-29T04:56:21.678Z,99119.64
2022-12-29T04:58:48.839Z,99121.95
2022-12-29T05:01:15.711Z,99115.36
2022-12-29T05:03:44.048Z,99116.70
2022-12-29T05:06:11.307Z,99116.87
2022-12-29T05:08:38.243Z,99117.71
2022-12-29T05:11:06.822Z,99118.61
2022-12-29T05:13:34.497Z,99117.92
2022-12-29T05:16:01.597Z,99116.72
2022-12-29T05:18:29.000Z,99115.20
2022-12-29T05:20:56.302Z,99116.83
2022-12-29T05:23:24.324Z,99119.84
2022-12-29T05:25:58.022Z,99114.64
2022-12-29T05:28:48.011Z,99116.23
2022-12-29T05:31:19.367Z,99119.34
2022-12-29T05:33:47.213Z,99126.75
2022-12-29T05:36:14.550Z,99122.98
2022-12-29T05:38:46.125Z,99117.76
2022-12-29T05:41:13.576Z,99108.35
2022-12-29T05:44:03.176Z,99114.33
2022-12-29T05:46:30.243Z,99116.94
2022-12-29T05:49:09.544Z,99121.39
2022-12-29T05:52:45.496Z,99122.02
2022-12-29T05:55:12.852Z,99116.85
2022-12-29T05:57:40.824Z,99128.41
2022-12-29T06:00:12.236Z,99129.65
2022-12-29T06:02:42.699Z,99129.13
2022-12-29T06:05:10.279Z,99128.75
2022-12-29T06:07:39.152Z,99131.23
2022-12-29T06:10:07.525Z,99126.84
2022-12-29T06:12:42.835Z,99131.84
2022-12-29T06:15:10.868Z,99125.46
2022-12-29T06:17:40.752Z,99127.67
2022-12-29T06:20:09.072Z,99125.90
2022-12-29T06:22:36.334Z,99126.09
2022-12-29T06:25:05.381Z,99127.02
2022-12-29T06:27:34.777Z,99129.59
2022-12-29T06:30:01.954Z,99137.01
2022-12-29T06:32:29.513Z,99133.16
2022-12-29T06:35:02.397Z,99126.60
2022-12-29T06:37:29.689Z,99134.86
2022-12-29T06:39:57.093Z,99127.48
2022-12-29T06:42:28.223Z,99121.13
2022-12-29T06:45:14.120Z,99117.26
2022-12-29T06:47:41.474Z,99115.50
2022-12-29T06:50:09.268Z,99114.77
2022-12-29T06:52:37.165Z,99114.94
2022-12-29T06:55:05.230Z,99114.71
2022-12-29T06:57:32.430Z,99118.52
2022-12-29T06:59:59.579Z,99121.06
2022-12-29T07:02:27.081Z,99117.71
2022-12-29T07:04:54.374Z,99118.86
2022-12-29T07:07:21.878Z,99122.36
2022-12-29T07:09:48.885Z,99121.82
2022-12-29T07:12:16.136Z,99125.20
2022-12-29T07:17:29.273Z,99124.42
2022-12-29T07:19:56.429Z,99125.84
2022-12-29T07:22:23.683Z,99123.50
2022-12-29T07:24:50.839Z,99130.13
2022-12-29T07:27:18.188Z,99130.85
2022-12-29T07:29:45.560Z,99127.73
2022-12-29T07:32:12.876Z,99128.80
2022-12-29T07:34:41.004Z,99124.20
2022-12-29T07:37:08.202Z,99129.30
2022-12-29T07:39:35.368Z,99124.15
2022-12-29T07:42:05.074Z,99121.98
2022-12-29T07:44:40.098Z,99122.19
2022-12-29T07:47:17.101Z,99122.08
2022-12-29T07:49:44.543Z,99127.02
2022-12-29T07:52:11.720Z,99127.36
2022-12-29T07:54:39.080Z,99127.41
2022-12-29T07:57:07.701Z,99128.79
2022-12-29T07:59:35.101Z,99128.67
2022-12-29T08:02:02.576Z,99131.16
2022-12-29T08:04:29.732Z,99129.18
2022-12-29T08:06:56.848Z,99128.42
2022-12-29T08:09:24.624Z,99130.95
2022-12-29T08:11:52.174Z,99128.54
2022-12-29T08:14:19.503Z,99128.90
2022-12-29T08:16:46.441Z,99128.14
2022-12-29T08:19:13.510Z,99126.96
2022-12-29T08:21:40.589Z,99123.36
2022-12-29T08:24:08.158Z,99128.23
2022-12-29T08:26:35.839Z,99125.43
2022-12-29T08:29:02.892Z,99116.46
2022-12-29T08:31:29.954Z,99117.27
2022-12-29T08:33:57.241Z,99116.91
2022-12-29T08:36:24.472Z,99116.58
2022-12-29T08:38:51.514Z,99111.44
2022-12-29T08:41:18.399Z,99111.83
2022-12-29T08:43:49.520Z,99108.08
2022-12-29T08:46:17.529Z,99103.55
2022-12-29T08:48:44.721Z,99096.27
2022-12-29T08:51:11.877Z,99096.02
2022-12-29T08:53:39.044Z,99088.51
2022-12-29T08:56:06.881Z,99088.63
2022-12-29T08:58:40.791Z,99089.42
2022-12-29T09:01:08.112Z,99087.37
2022-12-29T09:04:12.920Z,99084.84
2022-12-29T09:06:22.517Z,99081.10
2022-12-29T09:08:49.435Z,99087.52
2022-12-29T09:11:19.977Z,99088.11
2022-12-29T09:13:47.549Z,99092.27
2022-12-29T09:16:14.960Z,99091.81
2022-12-29T09:18:42.396Z,99082.52
2022-12-29T09:21:10.631Z,99081.33
2022-12-29T09:23:37.913Z,99082.33
2022-12-29T09:26:05.046Z,99083.70
2022-12-29T09:28:32.256Z,99079.26
2022-12-29T09:30:59.722Z,99083.72
2022-12-29T09:33:27.208Z,99078.84
2022-12-29T09:35:56.126Z,99077.48
2022-12-29T09:38:23.868Z,99074.35
2022-12-29T09:40:53.801Z,99070.52
2022-12-29T09:43:46.320Z,99062.97
2022-12-29T09:46:27.783Z,99062.02
2022-12-29T09:49:06.011Z,99056.96
2022-12-29T09:51:32.999Z,99060.30
2022-12-29T09:54:02.395Z,99058.63
2022-12-29T09:56:29.503Z,99057.67
2022-12-29T09:59:14.398Z,99057.52
2022-12-29T10:01:52.923Z,99055.79
2022-12-29T10:04:20.173Z,99053.23
2022-12-29T10:07:19.873Z,99051.83
2022-12-29T10:09:49.394Z,99054.25
2022-12-29T10:12:35.042Z,99049.10
2022-12-29T10:15:26.598Z,99046.83
2022-12-29T10:17:59.551Z,99048.55
2022-12-29T10:20:45.444Z,99048.63
2022-12-29T10:23:23.490Z,99045.11
2022-12-29T10:25:50.606Z,99044.14
2022-12-29T10:28:23.225Z,99039.52
2022-12-29T10:30:51.471Z,99035.45
2022-12-29T10:33:21.964Z,99042.02
2022-12-29T10:35:49.148Z,99044.20
2022-12-29T10:38:52.899Z,99039.77
2022-12-29T10:41:27.643Z,99036.94
2022-12-29T10:43:55.989Z,99031.83
2022-12-29T10:46:26.159Z,99031.95
2022-12-29T10:48:53.128Z,99035.91
2022-12-29T10:51:29.641Z,99034.06
2022-12-29T10:54:04.513Z,99026.71
2022-12-29T10:56:36.101Z,99026.83
2022-12-29T10:59:18.170Z,99027.93
2022-12-29T11:02:11.774Z,99022.83
2022-12-29T11:04:48.444Z,99026.48
2022-12-29T11:07:22.152Z,99025.71
2022-12-29T11:09:52.832Z,99025.38
2022-12-29T11:12:27.333Z,99029.08
2022-12-29T11:15:13.663Z,99020.91
2022-12-29T11:18:10.772Z,99017.67
2022-12-29T11:20:39.837Z,99015.47
2022-12-29T11:23:41.152Z,99006.40
2022-12-29T11:26:11.120Z,99002.18
2022-12-29T11:28:39.644Z,98998.52
2022-12-29T11:31:07.585Z,98989.41
2022-12-29T11:33:39.271Z,98983.09
2022-12-29T11:36:13.433Z,98986.60
2022-12-29T11:38:41.968Z,98990.64
2022-12-29T11:41:12.999Z,98993.77
2022-12-29T11:43:42.532Z,98984.30
2022-12-29T11:46:16.443Z,98978.49
2022-12-29T11:48:43.672Z,98979.60
2022-12-29T11:51:11.347Z,98982.58
2022-12-29T11:53:41.304Z,98984.14
2022-12-29T11:56:13.658Z,98988.63
2022-12-29T11:58:40.789Z,98992.08
2022-12-29T12:01:28.743Z,98994.00
2022-12-29T12:04:06.695Z,98995.06
2022-12-29T12:06:35.298Z,98991.41
2022-12-29T12:09:06.324Z,98990.16
2022-12-29T12:11:39.119Z,98993.91
2022-12-29T12:14:18.142Z,98994.88
2022-12-29T12:17:15.934Z,98989.42
2022-12-29T12:19:50.740Z,98987.95
2022-12-29T12:22:22.801Z,98986.44
2022-12-29T12:25:03.163Z,98982.98
2022-12-29T12:27:42.742Z,98982.69
2022-12-29T12:30:20.601Z,98980.41
2022-12-29T12:33:10.815Z,98979.64
2022-12-29T12:35:54.030Z,98979.02
2022-12-29T12:38:46.374Z,98980.04
2022-12-29T12:41:21.609Z,98979.41
2022-12-29T12:44:14.457Z,98989.32
2022-12-29T12:47:07.927Z,98989.87
2022-12-29T12:49:56.993Z,98996.00
2022-12-29T12:52:50.598Z,98990.55
2022-12-29T12:55:39.207Z,98992.33
2022-12-29T12:58:09.507Z,98986.09
2022-12-29T13:01:00.978Z,98982.59
2022-12-29T13:03:59.497Z,98977.65
2022-12-29T13:06:49.107Z,98974.45
2022-12-29T13:09:58.554Z,98974.41
2022-12-29T13:13:03.638Z,98974.25
2022-12-29T13:15:36.915Z,98977.17
2022-12-29T13:18:15.088Z,98975.09
2022-12-29T13:20:57.702Z,98976.89
2022-12-29T13:23:46.496Z,98976.40
2022-12-29T13:26:44.237Z,98976.15
2022-12-29T13:29:21.439Z,98980.16
2022-12-29T13:32:12.321Z,98975.95
2022-12-29T13:35:03.420Z,98978.60
2022-12-29T13:37:31.712Z,98979.63
2022-12-29T13:40:01.077Z,98981.03
2022-12-29T13:42:27.947Z,98983.65
2022-12-29T13:45:11.418Z,98985.20
2022-12-29T13:47:40.000Z,98984.36
2022-12-29T13:50:13.674Z,98985.27
2022-12-29T13:52:45.727Z,98987.92
2022-12-29T13:55:29.682Z,98986.90
2022-12-29T13:58:02.529Z,98990.17
2022-12-29T14:00:31.764Z,98991.73
2022-12-29T14:03:37.210Z,98995.89
2022-12-29T14:06:35.915Z,98990.57
2022-12-29T14:09:04.989Z,98990.42
2022-12-29T14:11:35.738Z,98987.62
2022-12-29T14:14:22.131Z,98980.03
2022-12-29T14:16:49.486Z,98978.16
2022-12-29T14:19:37.807Z,98979.52
2022-12-29T14:22:04.856Z,98977.32
2022-12-29T14:24:37.910Z,98980.79
2022-12-29T14:27:31.220Z,98974.91
2022-12-29T14:29:58.148Z,98979.30
2022-12-29T14:32:25.230Z,98987.35
2022-12-29T14:34:53.384Z,98987.34
2022-12-29T14:37:27.634Z,98987.71
2022-12-29T14:40:20.463Z,98983.10
2022-12-29T14:42:47.819Z,98979.90
2022-12-29T14:45:14.745Z,98978.98
2022-12-29T14:47:46.236Z,98973.21
2022-12-29T14:50:27.430Z,98970.48
2022-12-29T14:53:02.571Z,98968.54
2022-12-29T14:55:44.213Z,98971.23
2022-12-29T14:58:23.565Z,98966.35
2022-12-29T15:00:50.534Z,98971.77
2022-12-29T15:03:30.751Z,98972.84
2022-12-29T15:06:09.840Z,98972.42
2022-12-29T15:09:10.033Z,98977.98
2022-12-29T15:11:36.941Z,98973.20
2022-12-29T15:14:03.868Z,98976.55
2022-12-29T15:16:33.110Z,98976.56
2022-12-29T15:19:00.463Z,98978.55
2022-12-29T15:21:30.314Z,98977.77
2022-12-29T15:23:57.614Z,98978.21
2022-12-29T15:26:25.057Z,98976.77
2022-12-29T15:28:53.073Z,98975.71
2022-12-29T15:31:27.950Z,98971.55
2022-12-29T15:34:17.601Z,98968.28
2022-12-29T15:36:44.685Z,98964.25
2022-12-29T15:39:31.274Z,98964.58
2022-12-29T15:42:05.327Z,98965.55
2022-12-29T15:44:41.292Z,98964.33
2022-12-29T15:47:14.830Z,98965.20
2022-12-29T15:49:43.765Z,98958.68
2022-12-29T15:52:10.902Z,98961.91
2022-12-29T15:54:38.326Z,98964.48
2022-12-29T15:57:05.413Z,98959.98
2022-12-29T15:59:34.616Z,98961.04
2022-12-29T16:02:07.179Z,98960.59
2022-12-29T16:04:54.305Z,98959.63
2022-12-29T16:07:41.348Z,98960.28
2022-12-29T16:10:28.485Z,98957.27
2022-12-29T16:12:55.475Z,98960.88
2022-12-29T16:15:23.778Z,98959.27
2022-12-29T16:17:52.226Z,98957.92
2022-12-29T16:20:21.633Z,98953.59
2022-12-29T16:22:54.625Z,98957.92
2022-12-29T16:25:33.144Z,98956.91
2022-12-29T16:28:00.282Z,98955.61
2022-12-29T16:30:33.676Z,98953.65
2022-12-29T16:33:03.290Z,98956.60
2022-12-29T16:35:40.548Z,98957.87
2022-12-29T16:38:15.914Z,98962.59
2022-12-29T16:40:59.273Z,98962.78
2022-12-29T16:43:26.188Z,98956.81
2022-12-29T16:45:53.215Z,98959.11
2022-12-29T16:48:21.117Z,98961.27
2022-12-29T16:50:48.575Z,98964.16
2022-12-29T16:53:29.949Z,98965.10
2022-12-29T16:55:58.117Z,98968.16
2022-12-29T16:58:26.926Z,98969.48
2022-12-29T17:00:56.523Z,98970.62
2022-12-29T17:03:24.618Z,98971.50
2022-12-29T17:05:57.294Z,98970.06
2022-12-29T17:09:00.351Z,98967.26
2022-12-29T17:11:59.392Z,98959.98
2022-12-29T17:14:47.801Z,98960.02
2022-12-29T17:17:35.934Z,98953.32
2022-12-29T17:20:10.427Z,98959.77
2022-12-29T17:22:37.443Z,98951.60
2022-12-29T17:25:05.478Z,98950.77
2022-12-29T17:28:14.291Z,98949.45
2022-12-29T17:30:41.348Z,98948.83
2022-12-29T17:33:11.791Z,98949.94
2022-12-29T17:35:38.830Z,98945.58
2022-12-29T17:38:22.562Z,98939.67
2022-12-29T17:40:49.728Z,98940.96
2022-12-29T17:43:17.074Z,98942.92
2022-12-29T17:45:44.726Z,98945.16
2022-12-29T17:48:16.176Z,98941.61
2022-12-29T17:50:45.906Z,98940.96
2022-12-29T17:53:14.707Z,98934.77
2022-12-29T17:56:10.401Z,98930.97
2022-12-29T17:58:37.690Z,98925.98
2022-12-29T18:01:04.802Z,98925.29
2022-12-29T18:03:42.120Z,98927.11
2022-12-29T18:06:11.080Z,98929.45
2022-12-29T18:08:39.164Z,98926.00
2022-12-29T18:11:22.435Z,98926.77
2022-12-29T18:13:49.536Z,98928.10
2022-12-29T18:16:17.217Z,98921.85
2022-12-29T18:18:44.340Z,98926.99
2022-12-29T18:21:18.867Z,98919.47
2022-12-29T18:23:46.313Z,98927.58
2022-12-29T18:26:20.897Z,98926.02
2022-12-29T18:28:53.920Z,98929.45
2022-12-29T18:31:26.184Z,98932.95
2022-12-29T18:33:54.686Z,98926.41
2022-12-29T18:36:21.833Z,98930.02
2022-12-29T18:38:48.873Z,98928.76
2022-12-29T18:41:23.800Z,98928.11
2022-12-29T18:43:50.775Z,98927.27
2022-12-29T18:46:22.634Z,98921.78
2022-12-29T18:48:51.128Z,98922.92
2022-12-29T18:51:23.163Z,98922.52
2022-12-29T18:53:51.117Z,98916.57
2022-12-29T18:56:18.078Z,98911.91
2022-12-29T18:58:45.116Z,98913.75
2022-12-29T19:01:38.623Z,98914.19
2022-12-29T19:04:05.726Z,98910.54
2022-12-29T19:06:32.793Z,98907.29
2022-12-29T19:08:59.743Z,98910.69
2022-12-29T19:11:26.766Z,98908.98
2022-12-29T19:13:54.451Z,98909.14
2022-12-29T19:16:22.982Z,98906.95
2022-12-29T19:19:05.746Z,98907.13
2022-12-29T19:21:35.239Z,98903.75
2022-12-29T19:24:02.288Z,98906.13
2022-12-29T19:26:31.068Z,98906.01
2022-12-29T19:28:58.497Z,98900.55
2022-12-29T19:31:25.752Z,98898.11
2022-12-29T19:33:53.845Z,98897.81
2022-12-29T19:36:21.329Z,98900.05
2022-12-29T19:38:48.456Z,98906.35
2022-12-29T19:41:15.540Z,98902.68
2022-12-29T19:43:43.939Z,98901.70
2022-12-29T19:46:13.856Z,98902.52
2022-12-29T19:48:41.457Z,98901.65
2022-12-29T19:51:16.094Z,98906.15
2022-12-29T19:53:44.274Z,98907.05
2022-12-29T19:56:11.254Z,98905.14
2022-12-29T19:58:42.632Z,98906.24
2022-12-29T20:01:14.588Z,98906.51
2022-12-29T20:03:41.876Z,98905.89
2022-12-29T20:06:10.035Z,98904.81
2022-12-29T20:08:37.384Z,98906.14
2022-12-29T20:11:09.598Z,98907.16
2022-12-29T20:13:36.720Z,98908.02
2022-12-29T20:16:07.265Z,98913.80
2022-12-29T20:18:35.924Z,98913.02
2022-12-29T20:21:12.979Z,98913.05
2022-12-29T20:23:40.633Z,98910.58
2022-12-29T20:26:09.385Z,98913.25
2022-12-29T20:28:36.394Z,98913.30
2022-12-29T20:31:06.652Z,98916.54
2022-12-29T20:33:34.269Z,98916.90
2022-12-29T20:36:12.765Z,98919.35
2022-12-29T20:38:39.677Z,98922.17
2022-12-29T20:41:06.813Z,98920.88
2022-12-29T20:43:34.547Z,98925.45
2022-12-29T20:46:01.627Z,98924.55
2022-12-29T20:48:30.523Z,98928.89
2022-12-29T20:51:00.602Z,98929.15
2022-12-29T20:53:28.284Z,98930.52
2022-12-29T20:55:55.516Z,98929.02
2022-12-29T20:58:23.877Z,98934.07
2022-12-29T21:00:51.531Z,98936.29
2022-12-29T21:03:18.765Z,98931.84
2022-12-29T21:05:46.672Z,98938.98
2022-12-29T21:08:13.738Z,98935.52
2022-12-29T21:10:40.769Z,98936.27
2022-12-29T21:13:07.839Z,98936.57
2022-12-29T21:15:34.884Z,98933.23
2022-12-29T21:18:01.887Z,98931.41
2022-12-29T21:20:32.391Z,98927.52
2022-12-29T21:23:01.174Z,98922.05
2022-12-29T21:25:37.324Z,98918.02
2022-12-29T21:28:08.660Z,98923.59
2022-12-29T21:30:35.667Z,98925.98
2022-12-29T21:33:03.145Z,98922.80
2022-12-29T21:35:30.804Z,98925.09
2022-12-29T21:37:57.809Z,98927.70
2022-12-29T21:40:24.817Z,98925.97
2022-12-29T21:42:51.837Z,98923.05
2022-12-29T21:45:30.075Z,98920.16
2022-12-29T21:48:28.934Z,98914.70
2022-12-29T21:51:16.982Z,98917.31
2022-12-29T21:53:44.962Z,98917.21
2022-12-29T21:56:19.201Z,98918.10
2022-12-29T21:59:06.716Z,98911.40
2022-12-29T22:01:54.325Z,98918.59
2022-12-29T22:04:41.746Z,98917.11
2022-12-29T22:07:28.676Z,98916.34
2022-12-29T22:10:14.480Z,98910.95
2022-12-29T22:13:00.460Z,98905.65
2022-12-29T22:15:29.394Z,98905.15
2022-12-29T22:17:56.887Z,98907.91
2022-12-29T22:20:27.102Z,98908.02
2022-12-29T22:22:54.357Z,98910.95
2022-12-29T22:25:21.691Z,98914.10
2022-12-29T22:27:52.984Z,98910.77
2022-12-29T22:30:22.871Z,98910.20
2022-12-29T22:32:49.849Z,98908.08
2022-12-29T22:35:16.863Z,98903.48
2022-12-29T22:37:43.909Z,98898.96
2022-12-29T22:40:11.517Z,98897.39
2022-12-29T22:42:38.927Z,98893.08
2022-12-29T22:45:06.871Z,98894.02
2022-12-29T22:47:34.347Z,98896.24
2022-12-29T22:50:01.347Z,98895.23
2022-12-29T22:52:28.345Z,98895.67
2022-12-29T22:54:55.175Z,98899.05
2022-12-29T22:57:22.161Z,98900.64
2022-12-29T22:59:49.175Z,98898.85
2022-12-29T23:02:16.303Z,98899.48
2022-12-29T23:07:30.611Z,98899.70
2022-12-29T23:09:57.652Z,98899.14
2022-12-29T23:12:24.719Z,98902.79
2022-12-29T23:14:51.779Z,98896.79
2022-12-29T23:17:18.888Z,98895.67
2022-12-29T23:19:45.869Z,98895.27
2022-12-29T23:22:13.078Z,98894.87
2022-12-29T23:24:40.044Z,98895.72
2022-12-29T23:27:06.967Z,98898.58
2022-12-29T23:29:34.015Z,98897.98
2022-12-29T23:32:01.083Z,98900.02
2022-12-29T23:34:28.118Z,98901.61
2022-12-29T23:36:55.073Z,98901.19
2022-12-29T23:39:24.545Z,98900.03
2022-12-29T23:41:51.874Z,98895.58
2022-12-29T23:44:18.969Z,98888.11
2022-12-29T23:46:46.209Z,98893.83
2022-12-29T23:49:13.285Z,98891.39
2022-12-29T23:51:40.305Z,98887.06
2022-12-29T23:54:07.295Z,98886.31
2022-12-29T23:56:34.203Z,98884.18
2022-12-29T23:59:04.217Z,98884.79
